Time;durP1;ratioP1;P1;durP2;ratioP2;P2;SDS_P1;SDS_P2;PMS_P1;PMS_P2;Temp;Humidity;BMP_temperature;BMP_pressure;BME280_temperature;BME280_humidity;BME280_pressure;Samples;Min_cycle;Max_cycle;Signal;HPM_P1;HPM_P2
2023/02/09 09:11:59;;;;;;;58.90;26.40;;;;;;;-1.74;73.26;102641.26;109103;1277;23453;-47
2023/02/09 09:14:27;;;;;;;42.40;20.60;;;;;;;-1.61;73.61;102640.08;111695;1262;22278;-47
2023/02/09 09:16:58;;;;;;;33.80;17.20;;;;;;;-1.44;72.65;102632.31;111536;1262;23668;-47
2023/02/09 09:19:27;;;;;;;33.70;16.10;;;;;;;-1.37;70.72;102629.73;112572;1250;22396;-47
2023/02/09 09:21:55;;;;;;;33.00;16.00;;;;;;;-1.37;69.94;102623.05;112620;1251;22438;-47
2023/02/09 09:24:26;;;;;;;32.20;15.80;;;;;;;-1.33;69.56;102618.50;112542;1250;22372;-47
2023/02/09 09:26:54;;;;;;;26.10;12.90;;;;;;;-1.26;68.77;102609.51;112782;1250;22163;-47
2023/02/09 09:29:21;;;;;;;29.80;13.80;;;;;;;-1.21;68.04;102610.64;112285;1251;22575;-48
2023/02/09 09:31:48;;;;;;;23.80;12.20;;;;;;;-1.23;67.63;102603.78;112776;1251;23124;-49
2023/02/09 09:34:16;;;;;;;23.70;12.00;;;;;;;-1.25;67.09;102595.23;112364;1250;22417;-48
2023/02/09 09:36:42;;;;;;;16.70;9.80;;;;;;;-1.23;66.39;102595.94;111263;1250;24367;-48
2023/02/09 09:39:09;;;;;;;21.70;11.60;;;;;;;-1.20;66.22;102592.45;110457;1251;25303;-48
2023/02/09 09:41:36;;;;;;;20.70;10.70;;;;;;;-1.12;65.77;102587.83;112043;1250;23196;-46
2023/02/09 09:44:14;;;;;;;21.40;11.70;;;;;;;-1.04;65.45;102586.67;111757;1250;23264;-47
2023/02/09 09:46:51;;;;;;;18.80;10.60;;;;;;;-1.03;64.63;102582.23;111297;1250;22269;-46
2023/02/09 09:49:24;;;;;;;19.20;10.50;;;;;;;-0.99;63.98;102582.33;111597;1250;22729;-47
2023/02/09 09:52:19;;;;;;;17.40;10.30;;;;;;;-1.02;63.16;102576.05;112143;1250;22497;-46
2023/02/09 09:54:58;;;;;;;14.60;8.10;;;;;;;-1.12;62.44;102568.45;110615;1258;25531;-46
2023/02/09 09:57:43;;;;;;;12.60;7.50;;;;;;;-1.14;62.70;102559.88;110452;1258;22552;-39
2023/02/09 10:00:27;;;;;;;16.00;9.50;;;;;;;-1.15;61.83;102560.48;110643;1258;25827;-39
2023/02/09 10:02:57;;;;;;;16.40;8.70;;;;;;;-1.19;62.38;102559.42;110845;1258;22640;-38
2023/02/09 10:05:28;;;;;;;15.40;8.80;;;;;;;-1.17;62.65;102554.00;109694;1257;22512;-40
2023/02/09 10:08:13;;;;;;;18.20;8.70;;;;;;;-1.10;62.57;102555.20;110437;1258;22546;-38
2023/02/09 10:11:03;;;;;;;17.20;8.00;;;;;;;-1.08;62.77;102549.28;111467;1258;23038;-39
2023/02/09 10:13:52;;;;;;;18.40;8.80;;;;;;;-1.02;62.96;102549.33;110717;1251;22505;-46
2023/02/09 10:16:33;;;;;;;17.10;8.30;;;;;;;-0.92;63.09;102546.79;110932;1258;22554;-39
2023/02/09 10:19:26;;;;;;;17.80;8.60;;;;;;;-0.74;62.38;102542.59;111651;1258;22345;-47
2023/02/09 10:21:54;;;;;;;15.10;9.00;;;;;;;-0.57;62.40;102538.46;111043;1258;24249;-39
2023/02/09 10:24:30;;;;;;;15.40;8.80;;;;;;;-0.34;62.06;102535.20;111431;1253;22440;-47
2023/02/09 10:27:03;;;;;;;15.00;7.70;;;;;;;0.01;61.68;102527.96;111830;1242;23107;-49
2023/02/09 10:29:31;;;;;;;13.30;6.80;;;;;;;0.47;60.36;102521.38;111949;1258;23138;-48
2023/02/09 10:32:05;;;;;;;11.60;6.50;;;;;;;1.01;59.93;102514.08;112066;1252;23415;-49
2023/02/09 10:34:39;;;;;;;13.20;7.40;;;;;;;1.69;58.46;102507.14;112425;1252;22358;-48
2023/02/09 10:37:26;;;;;;;11.10;6.60;;;;;;;2.39;56.62;102503.77;112446;1252;22420;-48
2023/02/09 10:40:15;;;;;;;14.80;7.90;;;;;;;3.02;53.98;102500.22;112330;1252;23357;-41
2023/02/09 10:42:57;;;;;;;13.60;7.70;;;;;;;3.38;52.57;102493.56;111977;1252;26617;-49
2023/02/09 10:45:32;;;;;;;10.00;6.90;;;;;;;3.76;52.30;102485.60;111802;1252;23370;-50
2023/02/09 10:48:11;;;;;;;11.40;7.30;;;;;;;4.24;51.51;102484.08;111251;1252;22464;-48
2023/02/09 10:51:04;;;;;;;14.30;7.80;;;;;;;4.74;50.24;102485.84;111244;1249;23208;-48
2023/02/09 10:53:36;;;;;;;13.60;9.20;;;;;;;5.31;49.27;102477.52;112590;1251;22927;-48
2023/02/09 10:56:15;;;;;;;12.50;8.70;;;;;;;5.78;48.82;102475.10;112641;1251;23019;-48
2023/02/09 10:58:48;;;;;;;16.00;10.00;;;;;;;6.13;47.72;102466.76;112504;1251;22376;-48
2023/02/09 11:01:21;;;;;;;15.40;9.00;;;;;;;6.35;47.06;102464.27;112503;1251;22770;-39
2023/02/09 11:04:06;;;;;;;17.40;9.00;;;;;;;6.49;46.32;102454.39;112421;1251;23091;-40
2023/02/09 11:06:57;;;;;;;16.60;10.20;;;;;;;6.47;45.61;102451.36;112421;1251;22927;-48
2023/02/09 11:09:43;;;;;;;14.60;8.60;;;;;;;6.39;45.51;102448.89;112199;1251;22734;-41
2023/02/09 11:12:11;;;;;;;14.60;9.20;;;;;;;6.59;45.68;102448.16;112265;1251;22401;-40
2023/02/09 11:14:41;;;;;;;12.30;8.40;;;;;;;6.89;45.10;102441.83;112559;1251;22296;-39
2023/02/09 11:17:23;;;;;;;13.40;8.90;;;;;;;7.09;43.77;102439.48;112344;1251;22470;-49
2023/02/09 11:20:12;;;;;;;11.70;7.50;;;;;;;7.00;42.58;102437.69;112371;1251;22255;-42
2023/02/09 11:23:08;;;;;;;13.30;7.20;;;;;;;6.98;42.71;102434.82;112545;1251;22416;-47
2023/02/09 11:25:48;;;;;;;14.60;8.20;;;;;;;7.16;42.04;102428.02;112467;1251;22474;-40
2023/02/09 11:28:21;;;;;;;16.00;6.80;;;;;;;7.40;42.23;102424.67;112656;1251;22416;-41
2023/02/09 11:31:00;;;;;;;12.10;8.00;;;;;;;7.63;40.71;102422.60;112625;1251;23134;-40
2023/02/09 11:33:51;;;;;;;15.20;6.60;;;;;;;7.59;39.83;102425.03;112547;1251;22372;-47
2023/02/09 11:36:23;;;;;;;11.10;6.60;;;;;;;7.54;39.30;102421.63;112452;1251;22164;-49
2023/02/09 11:38:52;;;;;;;12.10;7.70;;;;;;;7.55;39.85;102422.03;112672;1251;22361;-48
2023/02/09 11:44:30;;;;;;;11.10;6.50;;;;;;;7.86;39.48;102413.20;112504;1251;22414;-40
2023/02/09 11:47:06;;;;;;;8.00;5.70;;;;;;;7.84;38.97;102411.73;112582;1251;22965;-42
2023/02/09 11:49:42;;;;;;;10.20;5.60;;;;;;;7.54;38.72;102408.48;112528;1251;22304;-45
2023/02/09 11:52:12;;;;;;;7.10;5.00;;;;;;;7.35;39.29;102408.66;112379;1251;23327;-46
2023/02/09 11:54:39;;;;;;;8.40;5.80;;;;;;;7.22;38.92;102405.93;111381;1251;22703;-40
2023/02/09 11:57:14;;;;;;;8.90;5.90;;;;;;;7.12;39.06;102404.44;112551;1251;22396;-47
2023/02/09 11:59:44;;;;;;;8.80;5.20;;;;;;;7.21;39.16;102400.15;112559;1251;23156;-48
2023/02/09 12:02:25;;;;;;;6.60;4.80;;;;;;;7.21;38.17;102403.11;112624;1251;23012;-40
2023/02/09 12:04:55;;;;;;;8.20;6.00;;;;;;;6.92;38.56;102397.57;112680;1251;22357;-41
